Allamuchy Township, New Jersey
Current Conditions -  °F | °C
As of 1:53 AM on Saturday 01 Nov 2014 (Local Time) from KSMQ Reporting Station
Overcast Overcast  
Wind Chill: 50°   Ceiling: 2000
Heat Index: 50°   Visibility: 10mi
Dew Point: 42°   Wind: 9mph
Humidity: 74%   Direction: 40°NE
Pressure: 29.83"   Gusts: 17mph
Location:  40.8661°N, 74.8361°W
Report Text: KSMQ 010553Z AUTO 04008G15KT 010V100 10SM OVC020 10/06 A2983 RMK AO2 SLP100 T01000056 10111 20094 56006
Loading
Personal Weather Stations






























Interactive Weather Map
Tropical Storm Tracking
New forecast layout! Learn more

10-Day Weather Forecast

Advertisements
Track Severe Weather on mobile